Time;durP1;ratioP1;P1;durP2;ratioP2;P2;SDS_P1;SDS_P2;PMS_P1;PMS_P2;Temp;Humidity;BMP_temperature;BMP_pressure;BME280_temperature;BME280_humidity;BME280_pressure;Samples;Min_cycle;Max_cycle;Signal;HPM_P1;HPM_P2
2021/01/25 00:01:30;;;;;;;25.35;11.45;;;;;;;5.77;67.98;98558.59;10457738;28;20136;-51
2021/01/25 00:06:33;;;;;;;17.95;6.55;;;;;;;5.80;68.50;98556.69;10416377;28;20037;-50
2021/01/25 00:11:34;;;;;;;18.65;8.98;;;;;;;5.82;68.66;98550.41;10417549;28;20057;-49
2021/01/25 00:16:37;;;;;;;19.30;8.60;;;;;;;5.88;68.86;98559.47;10417475;28;20045;-58
2021/01/25 00:21:39;;;;;;;16.17;8.73;;;;;;;5.94;68.54;98552.03;10419203;28;20045;-51
2021/01/25 00:26:40;;;;;;;23.40;8.18;;;;;;;5.91;67.92;98554.84;10417933;28;20073;-50
2021/01/25 00:31:43;;;;;;;18.63;8.90;;;;;;;5.90;68.11;98547.97;10418283;28;20057;-57
2021/01/25 00:36:45;;;;;;;22.15;9.05;;;;;;;5.86;68.30;98540.53;10457677;28;20378;-51
2021/01/25 00:41:46;;;;;;;20.27;8.63;;;;;;;5.82;67.26;98545.19;10457922;28;20083;-51
2021/01/25 00:46:49;;;;;;;14.23;7.30;;;;;;;5.88;68.12;98552.50;10475097;28;20047;-49
2021/01/25 00:51:51;;;;;;;18.65;8.38;;;;;;;5.88;67.40;98536.84;10497700;28;20133;-51
2021/01/25 00:56:53;;;;;;;13.93;5.97;;;;;;;5.89;67.66;98543.72;10496852;28;20044;-50
2021/01/25 01:02:02;;;;;;;16.52;7.53;;;;;;;5.92;68.15;98535.63;10533736;27;20351;-53
2021/01/25 01:07:04;;;;;;;14.70;7.10;;;;;;;5.96;67.30;98542.25;10534562;28;20054;-50
2021/01/25 01:12:07;;;;;;;18.13;7.82;;;;;;;5.89;67.47;98535.88;10533876;28;20048;-50
2021/01/25 01:17:10;;;;;;;16.00;7.20;;;;;;;5.88;67.39;98536.00;10533837;28;20477;-49
2021/01/25 01:22:11;;;;;;;17.93;7.83;;;;;;;5.89;67.52;98528.06;10534489;28;20377;-51
2021/01/25 01:27:13;;;;;;;15.85;7.65;;;;;;;5.95;67.48;98527.56;10533923;28;20494;-51
2021/01/25 01:32:16;;;;;;;14.23;6.60;;;;;;;5.93;66.77;98516.44;10530730;28;20055;-51
2021/01/25 01:37:18;;;;;;;13.20;6.75;;;;;;;5.88;66.72;98515.13;10529722;28;20052;-51
2021/01/25 01:42:20;;;;;;;10.45;5.55;;;;;;;5.83;67.34;98505.09;10530381;28;20078;-49
2021/01/25 01:47:22;;;;;;;11.52;5.85;;;;;;;5.78;66.63;98509.88;10530033;28;20051;-51
2021/01/25 01:52:24;;;;;;;12.30;5.07;;;;;;;5.65;66.46;98504.88;10531894;28;20055;-49
2021/01/25 01:57:27;;;;;;;13.23;5.75;;;;;;;5.64;67.63;98511.06;10531799;28;20048;-51
2021/01/25 02:02:29;;;;;;;12.32;5.55;;;;;;;5.62;66.20;98512.13;10532270;28;20072;-50
2021/01/25 02:07:32;;;;;;;12.48;5.43;;;;;;;5.65;66.84;98519.69;10532950;28;20056;-52
2021/01/25 02:12:34;;;;;;;9.75;5.10;;;;;;;5.65;67.13;98511.88;10508627;28;20131;-51
2021/01/25 02:17:38;;;;;;;10.95;5.70;;;;;;;5.60;66.71;98516.63;10503498;28;20091;-50
2021/01/25 02:23:03;;;;;;;11.93;5.07;;;;;;;5.60;67.21;98519.25;10503269;28;20052;-50
2021/01/25 02:28:06;;;;;;;10.40;4.88;;;;;;;5.61;66.24;98521.75;10536485;28;20054;-50
2021/01/25 02:33:09;;;;;;;9.57;4.87;;;;;;;5.57;65.94;98522.09;10502475;28;20048;-50
2021/01/25 02:38:14;;;;;;;8.03;4.30;;;;;;;5.55;66.04;98517.03;10497767;28;20131;-56
2021/01/25 02:43:17;;;;;;;9.63;4.68;;;;;;;5.48;66.20;98518.47;10503445;28;20298;-56
2021/01/25 02:48:19;;;;;;;9.77;4.10;;;;;;;5.43;65.52;98507.63;10501499;28;20052;-51
2021/01/25 02:53:21;;;;;;;9.85;4.65;;;;;;;5.40;65.37;98505.28;10503496;28;20067;-54
2021/01/25 02:58:24;;;;;;;12.70;5.40;;;;;;;5.38;66.34;98500.19;10460383;28;20072;-51
2021/01/25 03:03:28;;;;;;;8.48;5.15;;;;;;;5.41;65.53;98505.13;10476133;28;20475;-50
2021/01/25 03:08:30;;;;;;;11.75;5.13;;;;;;;5.39;66.02;98512.28;10501714;28;20045;-49
2021/01/25 03:13:32;;;;;;;12.50;6.30;;;;;;;5.35;65.88;98503.03;10501621;28;20054;-50
2021/01/25 03:18:34;;;;;;;15.43;5.65;;;;;;;5.33;66.27;98523.19;10501021;28;20097;-50
2021/01/25 03:23:38;;;;;;;17.52;7.03;;;;;;;5.32;65.95;98522.34;10500079;28;20083;-50
2021/01/25 03:28:40;;;;;;;;;;;;;;;5.36;65.60;98520.34;10501373;28;20044;-50
2021/01/25 03:33:42;;;;;;;17.40;6.05;;;;;;;5.39;65.21;98522.69;10500135;28;19924;-49
2021/01/25 03:38:43;;;;;;;14.52;7.05;;;;;;;5.41;65.66;98515.56;10497665;28;20055;-50
2021/01/25 03:43:46;;;;;;;12.07;5.38;;;;;;;5.44;65.47;98525.72;10497518;28;20427;-50
2021/01/25 03:48:48;;;;;;;18.27;7.45;;;;;;;5.40;65.74;98519.13;10499973;28;20049;-51
2021/01/25 03:53:49;;;;;;;12.07;4.75;;;;;;;5.34;65.78;98524.03;10500381;28;20131;-49
2021/01/25 03:58:52;;;;;;;10.38;5.55;;;;;;;5.25;65.50;98520.38;10498271;28;20473;-49
2021/01/25 04:03:54;;;;;;;13.73;5.82;;;;;;;5.16;65.36;98526.34;10486317;28;20139;-49
2021/01/25 04:08:55;;;;;;;15.30;6.80;;;;;;;5.10;65.23;98521.66;10498904;28;20448;-52
2021/01/25 04:13:58;;;;;;;16.33;6.97;;;;;;;5.11;65.59;98524.13;10499331;28;20056;-49
2021/01/25 04:19:00;;;;;;;14.35;7.07;;;;;;;5.10;64.93;98532.06;10496237;28;20056;-50
2021/01/25 04:24:01;;;;;;;23.02;8.63;;;;;;;5.13;65.46;98534.41;10497099;28;20048;-49
2021/01/25 04:29:04;;;;;;;14.10;6.72;;;;;;;5.16;65.50;98534.16;10496748;28;20052;-52
2021/01/25 04:34:06;;;;;;;14.55;6.40;;;;;;;5.15;65.09;98540.34;10498316;28;20044;-49
2021/01/25 04:39:08;;;;;;;16.13;6.05;;;;;;;5.17;64.96;98535.81;10501729;28;20052;-50
2021/01/25 04:44:11;;;;;;;10.18;5.07;;;;;;;5.17;64.58;98538.41;10498691;28;20056;-50
2021/01/25 04:49:15;;;;;;;18.70;7.28;;;;;;;5.17;65.00;98522.78;10497788;28;20059;-49
2021/01/25 04:54:17;;;;;;;13.43;6.15;;;;;;;5.25;66.03;98536.03;10498179;28;20094;-49
2021/01/25 04:59:20;;;;;;;15.68;8.38;;;;;;;5.25;65.09;98536.84;10497994;28;20080;-50
2021/01/25 05:04:22;;;;;;;15.50;6.80;;;;;;;5.19;64.35;98536.53;10498311;28;20054;-49
2021/01/25 05:09:23;;;;;;;14.10;5.80;;;;;;;5.06;64.48;98539.31;10499013;28;20798;-50
2021/01/25 05:14:36;;;;;;;16.25;6.78;;;;;;;4.94;64.49;98532.47;10497881;28;20048;-51
2021/01/25 05:19:40;;;;;;;12.75;5.88;;;;;;;4.89;64.51;98527.63;10495758;28;20056;-49
2021/01/25 05:24:47;;;;;;;14.15;6.35;;;;;;;4.80;64.18;98546.59;10495072;28;20056;-50
2021/01/25 05:29:50;;;;;;;16.17;5.95;;;;;;;4.71;64.37;98529.09;10494630;28;20072;-49
2021/01/25 05:35:02;;;;;;;15.98;6.53;;;;;;;4.73;64.51;98548.03;10495188;28;20048;-49
2021/01/25 05:40:05;;;;;;;7.07;3.80;;;;;;;4.74;63.90;98544.47;10496980;28;20048;-50
2021/01/25 05:45:09;;;;;;;10.00;4.23;;;;;;;4.71;64.34;98542.13;10498828;28;20068;-49
2021/01/25 05:50:24;;;;;;;14.88;5.43;;;;;;;4.65;63.63;98553.88;10464292;28;20140;-50
2021/01/25 05:55:25;;;;;;;;;;;;;;;4.67;63.52;98556.34;10463591;28;20382;-49
2021/01/25 06:00:31;;;;;;;14.10;5.38;;;;;;;4.67;64.06;98549.34;10462356;28;19924;-49
2021/01/25 06:05:36;;;;;;;12.38;5.65;;;;;;;4.76;63.94;98555.59;10496426;28;20052;-49
2021/01/25 06:10:46;;;;;;;14.02;7.07;;;;;;;4.90;64.67;98547.53;10503754;28;20048;-49
2021/01/25 06:15:51;;;;;;;12.13;5.72;;;;;;;5.11;64.03;98557.16;10504253;28;20147;-53
2021/01/25 06:20:55;;;;;;;14.27;5.32;;;;;;;5.27;64.21;98552.38;10505033;28;20105;-52
2021/01/25 06:25:56;;;;;;;;;;;;;;;5.33;64.02;98564.91;10505831;28;20109;-49
2021/01/25 06:31:00;;;;;;;11.95;5.47;;;;;;;5.42;64.13;98563.28;10504211;28;19925;-52
2021/01/25 06:36:08;;;;;;;12.60;4.88;;;;;;;5.51;64.58;98565.16;10508547;28;20058;-55
2021/01/25 06:41:11;;;;;;;13.95;6.43;;;;;;;5.58;64.29;98568.09;10507256;28;20048;-53
2021/01/25 06:46:18;;;;;;;11.00;3.77;;;;;;;5.59;63.21;98567.13;10505042;28;20485;-50
2021/01/25 06:51:21;;;;;;;12.15;5.82;;;;;;;5.57;61.67;98559.44;10504836;28;20317;-49
2021/01/25 06:56:23;;;;;;;11.73;5.60;;;;;;;5.62;62.46;98566.88;10503530;28;20044;-49
2021/01/25 07:01:25;;;;;;;13.63;6.43;;;;;;;5.63;62.39;98565.91;10503049;28;20067;-51
2021/01/25 07:06:35;;;;;;;12.35;4.43;;;;;;;5.63;61.82;98565.91;10503519;28;20485;-50
2021/01/25 07:11:37;;;;;;;13.27;6.47;;;;;;;5.67;62.38;98577.75;10502916;28;20113;-56
2021/01/25 07:16:42;;;;;;;11.88;5.80;;;;;;;5.66;61.57;98563.06;10502822;28;20060;-50
2021/01/25 07:21:44;;;;;;;13.63;6.13;;;;;;;5.67;62.05;98564.72;10502402;28;20473;-51
2021/01/25 07:26:49;;;;;;;12.98;6.10;;;;;;;5.76;62.33;98577.00;10502856;28;20052;-51
2021/01/25 07:31:53;;;;;;;12.38;5.85;;;;;;;5.80;62.15;98577.56;10502723;28;20138;-52
2021/01/25 07:36:55;;;;;;;14.70;7.35;;;;;;;5.72;61.61;98578.19;10502345;28;20056;-51
2021/01/25 07:41:57;;;;;;;12.13;5.82;;;;;;;5.74;61.26;98577.13;10501962;28;20479;-50
2021/01/25 07:47:04;;;;;;;13.13;6.57;;;;;;;5.74;61.92;98590.16;10501528;28;20201;-51
2021/01/25 07:52:16;;;;;;;14.93;6.28;;;;;;;5.73;61.98;98592.91;10501386;28;20514;-50
2021/01/25 07:57:23;;;;;;;13.35;6.88;;;;;;;5.85;61.90;98591.03;10501062;28;20127;-49
2021/01/25 08:02:27;;;;;;;22.58;7.97;;;;;;;5.68;62.15;98598.47;10501107;28;20079;-52
2021/01/25 08:07:28;;;;;;;13.32;6.43;;;;;;;5.69;61.18;98607.13;10500108;28;20052;-50
2021/01/25 08:12:30;;;;;;;13.35;5.90;;;;;;;5.68;61.62;98601.09;10500842;28;20049;-49
2021/01/25 08:17:35;;;;;;;16.30;7.82;;;;;;;5.71;61.86;98607.84;10500545;28;20048;-51
2021/01/25 08:22:42;;;;;;;16.77;5.78;;;;;;;5.81;61.18;98611.31;10500703;28;20053;-54
2021/01/25 08:27:53;;;;;;;17.98;7.45;;;;;;;5.80;61.70;98609.69;10504531;28;20055;-50
2021/01/25 08:32:56;;;;;;;16.40;7.25;;;;;;;5.82;61.34;98586.94;10500183;28;20059;-49
2021/01/25 08:38:24;;;;;;;15.35;7.32;;;;;;;5.84;61.66;98605.84;10498830;28;20477;-50
2021/01/25 08:43:29;;;;;;;14.63;6.88;;;;;;;5.81;61.35;98600.91;10499700;28;20055;-50
2021/01/25 08:48:33;;;;;;;19.05;6.80;;;;;;;5.74;60.63;98605.78;10499746;28;20052;-51
2021/01/25 08:53:34;;;;;;;17.15;8.05;;;;;;;5.63;60.71;98612.84;10500335;28;20055;-50
2021/01/25 08:58:36;;;;;;;14.88;8.35;;;;;;;5.40;59.50;98605.13;10499069;28;20113;-50
2021/01/25 09:03:39;;;;;;;23.88;9.95;;;;;;;5.36;60.55;98601.13;10499715;28;20132;-50
2021/01/25 09:08:40;;;;;;;15.15;6.63;;;;;;;5.40;60.20;98610.34;10499647;28;20199;-50
2021/01/25 09:13:42;;;;;;;20.00;10.35;;;;;;;5.35;61.54;98606.44;10499353;28;20504;-49
2021/01/25 09:18:45;;;;;;;19.23;10.80;;;;;;;5.57;62.25;98600.31;10499352;28;20048;-51
2021/01/25 09:23:46;;;;;;;22.05;12.02;;;;;;;5.70;61.08;98619.22;10507020;28;20040;-50
2021/01/25 09:28:48;;;;;;;14.57;8.25;;;;;;;5.75;61.27;98617.88;10507119;28;20049;-49
2021/01/25 09:33:51;;;;;;;21.58;10.63;;;;;;;5.57;59.98;98608.97;10507285;28;20447;-54
2021/01/25 09:38:52;;;;;;;18.15;10.68;;;;;;;5.51;60.61;98610.31;10507179;28;20044;-50
2021/01/25 09:43:55;;;;;;;16.08;8.68;;;;;;;5.71;61.05;98600.00;10507096;28;20385;-50
2021/01/25 09:48:57;;;;;;;20.33;9.43;;;;;;;5.87;60.69;98605.59;10506627;28;20052;-56
2021/01/25 09:53:59;;;;;;;19.10;10.07;;;;;;;5.92;59.71;98607.84;10508769;28;20488;-51
2021/01/25 09:59:01;;;;;;;13.98;8.63;;;;;;;5.92;59.80;98621.72;10505755;28;20060;-51
2021/01/25 10:04:04;;;;;;;13.10;6.47;;;;;;;6.10;59.98;98634.22;10505858;28;20044;-51
2021/01/25 10:09:06;;;;;;;16.63;9.03;;;;;;;6.14;60.81;98628.59;10506900;28;20048;-50
2021/01/25 10:14:07;;;;;;;15.93;9.00;;;;;;;6.52;60.92;98615.84;10510104;28;20055;-51
2021/01/25 10:19:10;;;;;;;12.60;7.53;;;;;;;6.96;59.94;98622.47;10505906;28;20053;-53
2021/01/25 10:24:12;;;;;;;14.35;8.70;;;;;;;7.15;59.69;98624.28;10504548;28;20125;-51
2021/01/25 10:29:13;;;;;;;15.55;8.32;;;;;;;7.51;59.72;98624.56;10506548;28;20372;-50
2021/01/25 10:34:16;;;;;;;15.07;8.73;;;;;;;7.64;58.27;98619.91;10505499;28;20049;-51
2021/01/25 10:39:18;;;;;;;21.88;8.93;;;;;;;7.75;59.00;98622.34;10504845;28;20049;-50
2021/01/25 10:44:19;;;;;;;14.93;10.00;;;;;;;7.99;60.02;98608.00;10504884;28;20393;-49
2021/01/25 10:49:22;;;;;;;13.65;8.23;;;;;;;7.74;58.58;98620.72;10504553;28;20052;-50
2021/01/25 10:54:25;;;;;;;18.38;9.35;;;;;;;7.71;58.64;98626.22;10504868;28;20052;-52
2021/01/25 10:59:27;;;;;;;14.65;8.30;;;;;;;7.60;59.43;98618.50;10503544;28;20049;-49
2021/01/25 11:04:29;;;;;;;15.55;9.38;;;;;;;7.75;59.12;98608.47;10503652;28;20052;-50
2021/01/25 11:09:31;;;;;;;19.25;9.73;;;;;;;7.58;58.86;98620.47;10502012;28;20044;-50
2021/01/25 11:14:33;;;;;;;16.55;9.75;;;;;;;7.41;58.76;98619.34;10503828;28;20075;-51
2021/01/25 11:19:35;;;;;;;14.82;8.98;;;;;;;7.34;58.57;98632.13;10502987;28;20045;-51
2021/01/25 11:24:37;;;;;;;20.38;9.93;;;;;;;7.08;58.58;98623.16;10502675;28;20044;-50
2021/01/25 11:29:39;;;;;;;16.83;9.18;;;;;;;6.96;58.72;98619.84;10502326;28;20508;-50
2021/01/25 11:34:41;;;;;;;16.75;10.68;;;;;;;6.83;59.42;98619.25;10503540;28;20052;-50
2021/01/25 11:39:44;;;;;;;15.85;8.73;;;;;;;6.44;57.17;98625.19;10504185;28;20093;-50
2021/01/25 11:44:46;;;;;;;20.55;10.60;;;;;;;6.16;58.15;98631.09;10500825;28;20067;-51
2021/01/25 11:49:48;;;;;;;21.23;12.45;;;;;;;6.18;58.94;98629.16;10501913;28;20101;-50
2021/01/25 11:54:50;;;;;;;15.18;9.07;;;;;;;5.86;57.76;98635.25;10503111;28;20048;-50
2021/01/25 11:59:52;;;;;;;18.35;10.43;;;;;;;5.63;58.30;98623.28;10505481;28;20048;-51
2021/01/25 12:04:54;;;;;;;23.35;11.98;;;;;;;5.60;59.08;98632.16;10500939;28;20048;-49
2021/01/25 12:09:56;;;;;;;20.92;10.65;;;;;;;5.51;58.73;98625.94;10500944;28;20055;-50
2021/01/25 12:14:58;;;;;;;25.73;15.02;;;;;;;5.31;58.61;98635.38;10500649;28;20052;-49
2021/01/25 12:20:00;;;;;;;22.17;12.75;;;;;;;5.42;59.87;98637.13;10500319;28;20048;-49
2021/01/25 12:25:02;;;;;;;21.02;11.93;;;;;;;5.39;58.55;98621.72;10500601;28;20110;-50
2021/01/25 12:30:07;;;;;;;28.50;14.23;;;;;;;5.35;59.64;98628.13;10500057;28;20056;-49
2021/01/25 12:35:12;;;;;;;28.27;14.80;;;;;;;5.36;59.98;98621.97;10498061;28;20059;-49
2021/01/25 12:40:15;;;;;;;27.38;13.82;;;;;;;5.33;59.65;98617.03;10499427;28;20045;-50
2021/01/25 12:45:18;;;;;;;29.93;14.40;;;;;;;5.37;59.91;98610.59;10497074;28;20465;-51
2021/01/25 12:50:21;;;;;;;23.17;13.57;;;;;;;5.25;59.49;98606.38;10499679;28;20049;-50
2021/01/25 12:55:22;;;;;;;28.47;15.30;;;;;;;5.14;59.29;98612.47;10500587;28;20056;-50
2021/01/25 13:00:27;;;;;;;32.50;15.95;;;;;;;5.13;59.92;98607.38;10499581;28;20402;-50
2021/01/25 13:05:31;;;;;;;26.08;15.00;;;;;;;5.11;60.39;98606.66;10499647;28;20048;-51
2021/01/25 13:10:33;;;;;;;23.40;12.70;;;;;;;5.02;60.07;98619.47;10499191;28;20072;-50
2021/01/25 13:15:35;;;;;;;27.30;16.50;;;;;;;4.98;60.12;98612.00;10498761;28;20056;-50
2021/01/25 13:20:37;;;;;;;17.88;9.40;;;;;;;4.91;60.45;98614.28;10499100;28;20052;-50
2021/01/25 13:25:39;;;;;;;26.38;14.27;;;;;;;4.89;60.86;98618.78;10499258;28;20442;-51
2021/01/25 13:30:41;;;;;;;22.55;11.05;;;;;;;4.92;60.89;98633.34;10499339;28;20044;-50
2021/01/25 13:35:43;;;;;;;21.05;11.23;;;;;;;4.74;60.32;98638.19;10498613;28;20083;-51
2021/01/25 13:40:45;;;;;;;25.98;11.93;;;;;;;4.51;59.96;98640.81;10498562;28;20048;-51
2021/01/25 13:45:47;;;;;;;25.88;11.38;;;;;;;4.39;60.38;98636.56;10502010;28;20094;-51
2021/01/25 13:50:50;;;;;;;26.20;11.98;;;;;;;4.35;60.43;98640.34;10499950;28;20503;-52
2021/01/25 13:55:53;;;;;;;22.25;13.05;;;;;;;4.35;60.73;98638.59;10498148;28;20064;-49
2021/01/25 14:00:54;;;;;;;32.70;14.80;;;;;;;4.40;60.23;98633.00;10497968;28;20052;-50
2021/01/25 14:05:57;;;;;;;31.40;16.02;;;;;;;4.45;60.79;98636.09;10499014;28;20151;-52
2021/01/25 14:10:59;;;;;;;34.90;16.58;;;;;;;4.47;61.19;98642.03;10506123;28;20076;-50
2021/01/25 14:16:00;;;;;;;24.10;13.45;;;;;;;4.50;60.29;98647.00;10505236;28;20052;-51
2021/01/25 14:21:03;;;;;;;29.52;16.27;;;;;;;4.54;61.11;98635.38;10505950;28;20131;-50
2021/01/25 14:26:05;;;;;;;28.55;13.98;;;;;;;4.65;61.06;98639.78;10504680;28;20080;-50
2021/01/25 14:31:07;;;;;;;29.42;14.15;;;;;;;4.65;60.90;98644.13;10505281;28;20059;-49
2021/01/25 14:36:10;;;;;;;26.85;14.18;;;;;;;4.65;61.09;98641.53;10504629;28;20401;-50
2021/01/25 14:41:12;;;;;;;26.45;14.88;;;;;;;4.67;61.21;98647.44;10504678;28;20083;-49
2021/01/25 14:46:13;;;;;;;30.30;14.55;;;;;;;4.64;61.60;98651.13;10505133;28;20064;-50
2021/01/25 14:51:16;;;;;;;29.60;13.75;;;;;;;4.68;61.48;98646.50;10503227;28;20393;-50
2021/01/25 14:56:18;;;;;;;24.60;11.90;;;;;;;4.70;61.52;98634.19;10503086;28;20083;-50
2021/01/25 15:01:21;;;;;;;28.45;14.27;;;;;;;4.64;61.63;98629.47;10503224;28;20485;-50
2021/01/25 15:06:24;;;;;;;27.42;14.48;;;;;;;4.66;61.72;98627.59;10504132;28;20053;-50
2021/01/25 15:11:26;;;;;;;20.20;10.60;;;;;;;4.61;61.85;98633.13;10503430;28;20075;-49
2021/01/25 15:16:28;;;;;;;30.75;13.95;;;;;;;4.63;61.99;98633.84;10503275;28;20048;-49
2021/01/25 15:21:31;;;;;;;21.55;10.63;;;;;;;4.69;61.34;98642.97;10502881;28;20082;-51
2021/01/25 15:26:33;;;;;;;23.50;12.82;;;;;;;4.56;61.61;98637.88;10479021;28;20505;-49
2021/01/25 15:31:34;;;;;;;24.05;12.35;;;;;;;4.64;61.33;98645.09;10489712;28;20045;-55
2021/01/25 15:36:37;;;;;;;24.23;12.88;;;;;;;4.73;61.19;98641.75;10470619;28;20047;-49
2021/01/25 15:41:42;;;;;;;26.42;12.88;;;;;;;4.73;61.38;98626.97;10461131;28;20055;-50
2021/01/25 15:46:44;;;;;;;22.25;12.50;;;;;;;4.72;61.35;98627.09;10460970;28;20045;-51
2021/01/25 15:51:46;;;;;;;26.67;14.70;;;;;;;4.80;61.55;98624.69;10460748;28;20059;-50
2021/01/25 15:56:48;;;;;;;26.27;13.38;;;;;;;4.68;61.65;98629.13;10461019;28;20048;-49
2021/01/25 16:01:50;;;;;;;17.42;7.93;;;;;;;4.63;62.18;98644.25;10459691;28;20064;-50
2021/01/25 16:06:52;;;;;;;30.17;13.60;;;;;;;4.63;62.23;98635.63;10482840;28;20052;-50
2021/01/25 16:11:54;;;;;;;21.30;11.03;;;;;;;4.42;61.57;98633.72;10497338;28;20389;-50
2021/01/25 16:16:56;;;;;;;22.60;10.63;;;;;;;4.29;61.22;98633.03;10497829;28;20072;-54
2021/01/25 16:21:59;;;;;;;17.23;9.60;;;;;;;4.34;61.51;98636.06;10496731;28;20425;-49
2021/01/25 16:27:01;;;;;;;15.40;8.30;;;;;;;4.39;61.61;98642.59;10499887;28;20048;-49
2021/01/25 16:32:03;;;;;;;17.15;9.32;;;;;;;4.39;61.28;98636.56;10498340;28;20103;-49
2021/01/25 16:37:07;;;;;;;13.18;6.43;;;;;;;4.36;61.31;98626.41;10498237;28;20040;-50
2021/01/25 16:42:09;;;;;;;;;;;;;;;4.21;61.17;98631.00;10498749;28;20048;-49
2021/01/25 16:47:10;;;;;;;15.20;8.85;;;;;;;4.25;61.29;98621.16;10498752;28;19924;-48
2021/01/25 16:52:13;;;;;;;20.58;10.35;;;;;;;4.24;61.47;98619.53;10498225;28;20042;-49
2021/01/25 16:57:15;;;;;;;15.70;8.82;;;;;;;4.26;61.75;98620.25;10497360;28;20104;-49
2021/01/25 17:02:16;;;;;;;19.50;11.32;;;;;;;4.28;61.47;98615.72;10497272;28;20044;-50
2021/01/25 17:07:19;;;;;;;13.88;6.38;;;;;;;4.27;61.72;98619.28;10497165;28;20201;-50
2021/01/25 17:12:20;;;;;;;20.50;11.45;;;;;;;4.33;61.60;98616.22;10497653;28;20052;-51
2021/01/25 17:17:22;;;;;;;22.80;12.40;;;;;;;4.38;61.59;98619.31;10496555;28;20502;-49
2021/01/25 17:22:25;;;;;;;26.13;12.60;;;;;;;4.39;61.63;98620.94;10496342;28;20036;-49
2021/01/25 17:27:27;;;;;;;23.15;13.27;;;;;;;4.36;61.84;98614.22;10498390;28;20053;-51
2021/01/25 17:32:28;;;;;;;24.92;14.43;;;;;;;4.33;61.16;98619.66;10497858;28;20068;-50
2021/01/25 17:37:31;;;;;;;22.88;11.32;;;;;;;4.22;61.13;98624.88;10484006;28;20091;-50
2021/01/25 17:42:33;;;;;;;27.75;13.38;;;;;;;4.06;61.62;98609.56;10503263;28;20054;-50
2021/01/25 17:47:35;;;;;;;23.27;13.18;;;;;;;4.06;61.90;98606.97;10512055;28;20048;-51
2021/01/25 17:52:41;;;;;;;24.00;13.50;;;;;;;4.14;61.84;98609.81;10510687;28;20101;-50
2021/01/25 17:57:42;;;;;;;28.48;14.07;;;;;;;4.29;61.72;98605.22;10504324;28;20067;-50
2021/01/25 18:02:44;;;;;;;26.70;13.80;;;;;;;4.32;61.35;98609.38;10503640;28;20051;-54
2021/01/25 18:07:47;;;;;;;20.08;9.85;;;;;;;4.31;61.37;98618.09;10503321;28;20052;-50
2021/01/25 18:12:49;;;;;;;27.67;13.03;;;;;;;4.21;61.35;98611.97;10507873;28;20067;-51
2021/01/25 18:17:51;;;;;;;26.08;11.80;;;;;;;4.12;61.67;98608.28;10502838;28;20056;-50
2021/01/25 18:22:53;;;;;;;25.90;12.95;;;;;;;4.10;62.08;98626.63;10502002;28;20055;-49
2021/01/25 18:27:56;;;;;;;21.67;10.87;;;;;;;4.18;61.74;98633.81;10502311;28;20048;-50
2021/01/25 18:32:58;;;;;;;30.27;14.25;;;;;;;4.15;61.84;98629.69;10501877;28;20496;-50
2021/01/25 18:38:04;;;;;;;28.23;14.07;;;;;;;4.23;62.15;98633.50;10502309;28;20044;-53
2021/01/25 18:43:06;;;;;;;21.88;11.60;;;;;;;4.34;62.04;98638.69;10502789;28;20036;-50
2021/01/25 18:48:09;;;;;;;21.70;10.82;;;;;;;4.27;62.21;98621.91;10501075;28;20574;-49
2021/01/25 18:53:11;;;;;;;18.43;9.00;;;;;;;4.21;62.58;98611.97;10500868;28;20134;-50
2021/01/25 18:58:13;;;;;;;24.27;12.05;;;;;;;4.14;62.60;98617.63;10501072;28;20064;-49
2021/01/25 19:03:15;;;;;;;21.75;11.05;;;;;;;4.12;62.92;98614.31;10500856;28;20055;-49
2021/01/25 19:08:18;;;;;;;18.90;9.45;;;;;;;4.11;62.68;98612.66;10500801;28;20048;-49
2021/01/25 19:13:20;;;;;;;20.90;10.25;;;;;;;4.09;62.87;98609.34;10500367;28;20430;-50
2021/01/25 19:18:22;;;;;;;24.67;10.57;;;;;;;4.13;63.18;98605.56;10497637;28;20071;-50
2021/01/25 19:23:25;;;;;;;22.27;9.88;;;;;;;4.17;62.66;98608.75;10500135;28;20036;-49
2021/01/25 19:28:27;;;;;;;19.85;9.65;;;;;;;4.20;63.30;98608.53;10499346;28;20110;-49
2021/01/25 19:33:28;;;;;;;21.30;11.15;;;;;;;4.18;63.14;98614.78;10499295;28;20044;-49
2021/01/25 19:38:31;;;;;;;21.92;10.48;;;;;;;4.22;62.69;98624.88;10499035;28;20056;-53
2021/01/25 19:43:33;;;;;;;21.77;10.50;;;;;;;4.18;62.71;98622.59;10496761;28;20048;-49
2021/01/25 19:48:34;;;;;;;23.63;10.88;;;;;;;4.20;62.75;98615.50;10498817;28;20463;-53
2021/01/25 19:53:37;;;;;;;31.88;12.70;;;;;;;4.18;63.36;98607.81;10500456;28;20048;-49
2021/01/25 19:58:39;;;;;;;20.02;8.90;;;;;;;4.18;63.13;98626.03;10470437;28;20382;-54
2021/01/25 20:03:41;;;;;;;23.98;11.25;;;;;;;4.09;63.48;98618.91;10495726;28;20061;-50
2021/01/25 20:08:43;;;;;;;23.65;11.48;;;;;;;4.02;63.42;98612.53;10493877;28;20084;-49
2021/01/25 20:13:46;;;;;;;23.30;10.52;;;;;;;3.93;63.39;98619.25;10495146;28;20036;-50
2021/01/25 20:18:48;;;;;;;29.45;9.40;;;;;;;3.85;63.42;98601.63;10494509;28;20117;-48
2021/01/25 20:23:50;;;;;;;23.48;9.77;;;;;;;3.72;63.58;98626.88;10494698;28;20076;-50
2021/01/25 20:28:54;;;;;;;21.23;8.38;;;;;;;3.67;63.86;98606.44;10495390;28;20088;-49
2021/01/25 20:33:56;;;;;;;16.45;7.10;;;;;;;3.61;63.71;98611.25;10494882;28;20056;-49
2021/01/25 20:38:59;;;;;;;18.60;8.23;;;;;;;3.49;63.54;98605.19;10494463;28;20510;-48
2021/01/25 20:44:01;;;;;;;26.92;11.60;;;;;;;3.52;64.20;98615.38;10494361;28;20427;-49
2021/01/25 20:49:05;;;;;;;24.60;10.05;;;;;;;3.54;63.91;98592.69;10494150;28;20143;-49
2021/01/25 20:54:07;;;;;;;22.23;8.77;;;;;;;3.53;64.29;98605.78;10493978;28;20052;-49
2021/01/25 20:59:09;;;;;;;20.80;9.95;;;;;;;3.52;64.19;98612.75;10494307;28;20460;-50
2021/01/25 21:04:11;;;;;;;26.13;10.60;;;;;;;3.51;63.69;98615.47;10494283;28;20083;-49
2021/01/25 21:09:13;;;;;;;26.83;11.63;;;;;;;3.52;64.24;98617.97;10490820;28;20078;-51
2021/01/25 21:14:15;;;;;;;26.45;11.68;;;;;;;3.47;63.55;98602.69;10493968;28;20063;-50
2021/01/25 21:19:16;;;;;;;19.13;8.10;;;;;;;3.48;64.01;98613.94;10501771;28;20060;-50
2021/01/25 21:24:19;;;;;;;21.98;10.02;;;;;;;3.42;64.14;98615.22;10502196;28;20079;-51
2021/01/25 21:29:21;;;;;;;23.53;10.13;;;;;;;3.45;64.10;98614.16;10501061;28;20083;-50
2021/01/25 21:34:23;;;;;;;18.33;7.68;;;;;;;3.43;63.77;98616.84;10502468;28;20059;-49
2021/01/25 21:39:28;;;;;;;24.53;12.20;;;;;;;3.39;63.93;98604.22;10501247;28;20059;-49
2021/01/25 21:44:30;;;;;;;23.38;9.20;;;;;;;3.39;64.15;98609.41;10502887;28;20052;-49
2021/01/25 21:49:31;;;;;;;21.42;8.82;;;;;;;3.34;64.17;98614.94;10498851;28;20080;-50
2021/01/25 21:54:34;;;;;;;25.08;11.95;;;;;;;3.34;64.42;98601.94;10502883;28;20062;-49
2021/01/25 21:59:37;;;;;;;21.80;10.55;;;;;;;3.34;63.92;98606.31;10500325;28;20044;-49
2021/01/25 22:04:39;;;;;;;26.38;10.98;;;;;;;3.40;64.31;98605.88;10499713;28;20040;-49
2021/01/25 22:09:42;;;;;;;22.05;9.35;;;;;;;3.51;64.32;98613.72;10500627;28;20068;-50
2021/01/25 22:14:43;;;;;;;23.77;10.32;;;;;;;3.48;64.30;98619.13;10498134;28;20056;-50
2021/01/25 22:19:45;;;;;;;27.25;11.82;;;;;;;3.48;64.07;98603.56;10499495;28;20059;-49
2021/01/25 22:24:47;;;;;;;19.05;9.45;;;;;;;3.41;63.96;98592.75;10500811;28;20048;-49
2021/01/25 22:29:49;;;;;;;20.05;8.00;;;;;;;3.35;64.55;98608.78;10507734;28;20055;-50
2021/01/25 22:34:51;;;;;;;24.27;11.02;;;;;;;3.28;64.65;98594.59;10499030;28;20185;-49
2021/01/25 22:39:54;;;;;;;25.60;10.68;;;;;;;3.25;64.98;98591.41;10498787;28;20101;-50
2021/01/25 22:44:56;;;;;;;34.08;12.38;;;;;;;3.15;64.96;98599.88;10499002;28;20071;-50
2021/01/25 22:49:57;;;;;;;19.63;8.68;;;;;;;3.03;64.81;98589.53;10498495;28;20491;-49
2021/01/25 22:55:00;;;;;;;23.88;10.95;;;;;;;3.00;65.74;98590.56;10498457;28;20049;-49
2021/01/25 23:00:06;;;;;;;23.93;9.07;;;;;;;3.07;65.75;98583.16;10498856;28;20064;-50
2021/01/25 23:05:09;;;;;;;23.52;10.25;;;;;;;3.00;65.90;98577.59;10498110;28;20480;-51
2021/01/25 23:10:14;;;;;;;27.73;11.50;;;;;;;2.94;65.54;98565.88;10495505;28;20036;-50
2021/01/25 23:15:25;;;;;;;19.13;8.88;;;;;;;2.89;65.93;98580.13;10498180;28;20135;-50
2021/01/25 23:20:30;;;;;;;13.68;5.40;;;;;;;2.83;66.04;98570.19;10496919;28;20169;-48
2021/01/25 23:25:33;;;;;;;24.08;10.40;;;;;;;2.79;66.25;98569.56;10497610;28;20059;-49